Buffalo, South Dakota
Current Conditions -  °F | °C
As of 8:53 PM on Friday 19 Dec 2014 (Local Time) from KHEI Reporting Station
Clear Clear  
Wind Chill: 19°   Ceiling: Unl
Heat Index: 19°   Visibility: 10mi
Dew Point: 16°   Wind: 0mph
Humidity: 88%   Direction: NA
Pressure: 29.91"   Gusts: NA
Location:  45.58°N, 103.55°W
Report Text: KHEI 200353Z AUTO 00000KT 10SM CLR M07/M09 A2991 RMK AO2 SLP165 I1000 T10721089
Loading
Personal Weather Stations






























Interactive Weather Map New forecast layout! Learn more

10-Day Weather Forecast

Advertisements
Track Severe Weather on mobile